Terminal Aerodrome Forecast
Issued by NWS

Home | Current Version | Previous Version | Text Only | Print | Product List | Glossary On
Versions: 1 2 3 4 5 6 7 8 9 10 11 12 13 14 15 16 17 18 19 20 21 22 23 24 25 26 27 28 29 30 31
000
FTUS46 KSGX 131100
TAFSAN
TAF
KSAN 131122Z 1312/1418 VRB04KT P6SM SCT012
     FM131300 VRB03KT P6SM BKN012
     FM131600 VRB04KT P6SM SCT015
     FM131900 27009KT P6SM SCT150
     FM140200 VRB04KT P6SM SCT015 BKN150
     FM140800 VRB03KT P6SM BKN012 BKN150
     FM141600 VRB04KT P6SM SCT015 BKN150=

USA.gov is the U.S. government's official web portal to all federal, state and local government web resources and services.